Pagrindinis puslapis
METAR-TAF:

METAR-TAF

Oro uostai :

Šanchajus-Hongqiao, Kinija

platuma: 31-10N, ilguma: 121-26E, Aukštis: 7 m

Dabartinis oras

Ataskaita buvo paskelbta 29 minutes, ne 13:00 UTC
Vėjas 4 kt iš Šiaurės
Temperatūra 6°C
Drėgmė 56%
Slėgis 1032 hPa
Matomumas 10 km arba daugiau
nėra debesų žemiau 1500 m ir nėra kamuolinių lietaus debesų

METAR: ZSSS 071300Z 01002MPS CAVOK 06/M02 Q1032 NOSIG

Laikas: 21:29 (13:29 UTC)

Prognozė

Ataskaita buvo paskelbta 4 valandos ir 17 minutes, ne 09:12 UTC
Prognozė galioja nuo 07 metu 12 UTC su 08 metu 12 UTC
Vėjas 8 kt iš Šiaurės
Matomumas: 6000 m
Išsisklaidę debesys ne aukštis 3000 ft
Tapsmas
nuo 08 metu 06 UTC su 08 metu 08 UTC
Vėjas 8 kt iš Pietų

TAF: ZSSS 070912Z 0712/0812 01004MPS 6000 SCT030 TX12/0806Z TN03/0721Z BECMG 0806/0808 17004MPS

Orai ataskaitas ir orų prognozės (METAR, TAF).

turimą stotys yra geltonos ir raudonos taškus žemėlapyje.

Perkelti pele per norėdami pamatyti stoties vardą.

Tada spustelėkite, norėdami matyti oro stebėjimo ir prognozės.

Norėdami pakeisti žemėlapį: spustelėkite ant žalios mygtukų su juodo kryžiaus žemyn,; žalią mygtuką su brūkšneliu, jei norite nutolinti; arba žalių rodyklių gretimoms žemėlapius.


METAR-TAF: